sensor_id;sensor_type;location;lat;lon;timestamp;P1;durP1;ratioP1;P2;durP2;ratioP2
13173;SDS011;6652;48.802;9.190;2023-08-17T00:00:00;14.00;;;10.57;;
13173;SDS011;6652;48.802;9.190;2023-08-17T00:02:29;12.85;;;9.80;;
13173;SDS011;6652;48.802;9.190;2023-08-17T00:04:55;15.57;;;10.70;;
13173;SDS011;6652;48.802;9.190;2023-08-17T00:07:22;13.60;;;10.50;;
13173;SDS011;6652;48.802;9.190;2023-08-17T00:09:49;21.05;;;10.55;;
13173;SDS011;6652;48.802;9.190;2023-08-17T00:12:16;19.40;;;10.35;;
13173;SDS011;6652;48.802;9.190;2023-08-17T00:14:44;16.05;;;11.15;;
13173;SDS011;6652;48.802;9.190;2023-08-17T00:17:11;16.25;;;11.27;;
13173;SDS011;6652;48.802;9.190;2023-08-17T00:19:37;15.07;;;11.20;;
13173;SDS011;6652;48.802;9.190;2023-08-17T00:22:04;16.30;;;11.10;;
13173;SDS011;6652;48.802;9.190;2023-08-17T00:24:31;16.10;;;10.73;;
13173;SDS011;6652;48.802;9.190;2023-08-17T00:26:58;16.00;;;10.48;;
13173;SDS011;6652;48.802;9.190;2023-08-17T00:29:24;17.80;;;10.68;;
13173;SDS011;6652;48.802;9.190;2023-08-17T00:31:53;19.60;;;10.48;;
13173;SDS011;6652;48.802;9.190;2023-08-17T00:34:20;19.10;;;11.50;;
13173;SDS011;6652;48.802;9.190;2023-08-17T00:36:46;16.17;;;11.25;;
13173;SDS011;6652;48.802;9.190;2023-08-17T00:39:13;16.98;;;11.10;;
13173;SDS011;6652;48.802;9.190;2023-08-17T00:41:40;16.08;;;11.23;;
13173;SDS011;6652;48.802;9.190;2023-08-17T00:44:07;19.88;;;11.43;;
13173;SDS011;6652;48.802;9.190;2023-08-17T00:46:36;15.35;;;10.82;;
13173;SDS011;6652;48.802;9.190;2023-08-17T00:49:06;17.15;;;11.57;;
13173;SDS011;6652;48.802;9.190;2023-08-17T00:51:33;17.13;;;10.90;;
13173;SDS011;6652;48.802;9.190;2023-08-17T00:54:00;21.15;;;10.82;;
13173;SDS011;6652;48.802;9.190;2023-08-17T00:56:28;17.60;;;10.23;;
13173;SDS011;6652;48.802;9.190;2023-08-17T00:58:55;18.77;;;11.70;;
13173;SDS011;6652;48.802;9.190;2023-08-17T01:01:22;22.98;;;11.45;;
13173;SDS011;6652;48.802;9.190;2023-08-17T01:03:50;19.20;;;11.30;;
13173;SDS011;6652;48.802;9.190;2023-08-17T01:06:18;28.92;;;12.93;;
13173;SDS011;6652;48.802;9.190;2023-08-17T01:08:45;15.27;;;10.20;;
13173;SDS011;6652;48.802;9.190;2023-08-17T01:11:14;17.38;;;10.73;;
13173;SDS011;6652;48.802;9.190;2023-08-17T01:13:52;14.63;;;11.15;;
13173;SDS011;6652;48.802;9.190;2023-08-17T01:16:24;18.10;;;11.68;;
13173;SDS011;6652;48.802;9.190;2023-08-17T01:18:54;18.17;;;10.55;;
13173;SDS011;6652;48.802;9.190;2023-08-17T01:21:25;21.60;;;11.60;;
13173;SDS011;6652;48.802;9.190;2023-08-17T01:24:02;17.80;;;10.13;;
13173;SDS011;6652;48.802;9.190;2023-08-17T01:26:29;23.17;;;10.20;;
13173;SDS011;6652;48.802;9.190;2023-08-17T01:28:55;18.58;;;11.23;;
13173;SDS011;6652;48.802;9.190;2023-08-17T01:31:23;14.65;;;9.98;;
13173;SDS011;6652;48.802;9.190;2023-08-17T01:33:56;11.18;;;9.73;;
13173;SDS011;6652;48.802;9.190;2023-08-17T01:36:30;16.27;;;10.32;;
13173;SDS011;6652;48.802;9.190;2023-08-17T01:39:00;13.48;;;9.70;;
13173;SDS011;6652;48.802;9.190;2023-08-17T01:41:29;14.73;;;10.23;;
13173;SDS011;6652;48.802;9.190;2023-08-17T01:43:58;16.30;;;9.43;;
13173;SDS011;6652;48.802;9.190;2023-08-17T01:46:29;14.90;;;9.50;;
13173;SDS011;6652;48.802;9.190;2023-08-17T01:48:57;10.23;;;9.00;;
13173;SDS011;6652;48.802;9.190;2023-08-17T01:51:24;14.95;;;9.43;;
13173;SDS011;6652;48.802;9.190;2023-08-17T01:53:51;14.10;;;9.07;;
13173;SDS011;6652;48.802;9.190;2023-08-17T01:56:19;14.02;;;8.82;;
13173;SDS011;6652;48.802;9.190;2023-08-17T01:58:46;11.52;;;8.80;;
13173;SDS011;6652;48.802;9.190;2023-08-17T02:01:13;17.20;;;8.90;;
13173;SDS011;6652;48.802;9.190;2023-08-17T02:03:39;12.90;;;8.55;;
13173;SDS011;6652;48.802;9.190;2023-08-17T02:06:06;20.17;;;9.27;;
13173;SDS011;6652;48.802;9.190;2023-08-17T02:08:33;17.27;;;9.50;;
13173;SDS011;6652;48.802;9.190;2023-08-17T02:11:00;15.90;;;10.35;;
13173;SDS011;6652;48.802;9.190;2023-08-17T02:13:28;14.18;;;9.15;;
13173;SDS011;6652;48.802;9.190;2023-08-17T02:15:56;14.88;;;9.73;;
13173;SDS011;6652;48.802;9.190;2023-08-17T02:18:23;16.30;;;10.43;;
13173;SDS011;6652;48.802;9.190;2023-08-17T02:20:50;15.88;;;9.90;;
13173;SDS011;6652;48.802;9.190;2023-08-17T02:23:16;14.75;;;10.98;;
13173;SDS011;6652;48.802;9.190;2023-08-17T02:25:43;13.13;;;10.07;;
13173;SDS011;6652;48.802;9.190;2023-08-17T02:28:10;17.33;;;10.05;;
13173;SDS011;6652;48.802;9.190;2023-08-17T02:30:38;18.98;;;10.48;;
13173;SDS011;6652;48.802;9.190;2023-08-17T02:33:05;17.60;;;10.00;;
13173;SDS011;6652;48.802;9.190;2023-08-17T02:35:32;12.05;;;8.98;;
13173;SDS011;6652;48.802;9.190;2023-08-17T02:37:59;13.57;;;10.63;;
13173;SDS011;6652;48.802;9.190;2023-08-17T02:40:26;11.85;;;10.20;;
13173;SDS011;6652;48.802;9.190;2023-08-17T02:42:53;20.85;;;11.30;;
13173;SDS011;6652;48.802;9.190;2023-08-17T02:45:19;17.35;;;12.70;;
13173;SDS011;6652;48.802;9.190;2023-08-17T02:47:47;22.45;;;11.85;;
13173;SDS011;6652;48.802;9.190;2023-08-17T02:50:14;16.52;;;11.45;;
13173;SDS011;6652;48.802;9.190;2023-08-17T02:52:42;18.45;;;13.13;;
13173;SDS011;6652;48.802;9.190;2023-08-17T02:55:09;19.63;;;12.70;;
13173;SDS011;6652;48.802;9.190;2023-08-17T02:57:35;24.02;;;12.60;;
13173;SDS011;6652;48.802;9.190;2023-08-17T03:00:02;22.90;;;12.75;;
13173;SDS011;6652;48.802;9.190;2023-08-17T03:02:30;19.27;;;12.02;;
13173;SDS011;6652;48.802;9.190;2023-08-17T03:04:58;18.65;;;12.90;;
13173;SDS011;6652;48.802;9.190;2023-08-17T03:07:24;18.90;;;12.40;;
13173;SDS011;6652;48.802;9.190;2023-08-17T03:09:51;19.15;;;13.02;;
13173;SDS011;6652;48.802;9.190;2023-08-17T03:12:18;20.98;;;11.48;;
13173;SDS011;6652;48.802;9.190;2023-08-17T03:14:45;19.73;;;13.07;;
13173;SDS011;6652;48.802;9.190;2023-08-17T03:17:12;23.05;;;15.30;;
13173;SDS011;6652;48.802;9.190;2023-08-17T03:19:39;22.67;;;14.77;;
13173;SDS011;6652;48.802;9.190;2023-08-17T03:22:08;25.80;;;13.98;;
13173;SDS011;6652;48.802;9.190;2023-08-17T03:24:34;20.40;;;14.02;;
13173;SDS011;6652;48.802;9.190;2023-08-17T03:27:01;21.38;;;14.43;;
13173;SDS011;6652;48.802;9.190;2023-08-17T03:29:28;23.60;;;12.80;;
13173;SDS011;6652;48.802;9.190;2023-08-17T03:31:55;24.67;;;14.32;;
13173;SDS011;6652;48.802;9.190;2023-08-17T03:34:21;21.80;;;14.88;;
13173;SDS011;6652;48.802;9.190;2023-08-17T03:36:48;29.67;;;14.45;;
13173;SDS011;6652;48.802;9.190;2023-08-17T03:39:17;18.92;;;14.32;;
13173;SDS011;6652;48.802;9.190;2023-08-17T03:41:44;21.42;;;14.38;;
13173;SDS011;6652;48.802;9.190;2023-08-17T03:44:10;24.60;;;14.70;;
13173;SDS011;6652;48.802;9.190;2023-08-17T03:46:38;22.10;;;15.00;;
13173;SDS011;6652;48.802;9.190;2023-08-17T03:49:05;24.73;;;14.38;;
13173;SDS011;6652;48.802;9.190;2023-08-17T03:51:32;27.52;;;16.50;;
13173;SDS011;6652;48.802;9.190;2023-08-17T03:53:59;27.67;;;14.35;;
13173;SDS011;6652;48.802;9.190;2023-08-17T03:56:27;23.83;;;13.52;;
13173;SDS011;6652;48.802;9.190;2023-08-17T03:58:54;22.42;;;14.52;;
13173;SDS011;6652;48.802;9.190;2023-08-17T04:01:20;24.27;;;14.93;;
13173;SDS011;6652;48.802;9.190;2023-08-17T04:03:47;28.83;;;14.85;;
13173;SDS011;6652;48.802;9.190;2023-08-17T04:06:14;22.15;;;13.85;;
13173;SDS011;6652;48.802;9.190;2023-08-17T04:08:41;23.25;;;14.23;;
13173;SDS011;6652;48.802;9.190;2023-08-17T04:11:07;27.85;;;13.85;;
13173;SDS011;6652;48.802;9.190;2023-08-17T04:13:36;20.60;;;13.55;;
13173;SDS011;6652;48.802;9.190;2023-08-17T04:16:02;23.85;;;13.85;;
13173;SDS011;6652;48.802;9.190;2023-08-17T04:18:29;24.25;;;14.80;;
13173;SDS011;6652;48.802;9.190;2023-08-17T04:20:56;20.48;;;13.57;;
13173;SDS011;6652;48.802;9.190;2023-08-17T04:23:23;22.25;;;13.77;;
13173;SDS011;6652;48.802;9.190;2023-08-17T04:25:50;22.98;;;14.35;;
13173;SDS011;6652;48.802;9.190;2023-08-17T04:28:17;27.73;;;14.88;;
13173;SDS011;6652;48.802;9.190;2023-08-17T04:30:45;18.85;;;13.50;;
13173;SDS011;6652;48.802;9.190;2023-08-17T04:33:12;19.45;;;14.15;;
13173;SDS011;6652;48.802;9.190;2023-08-17T04:35:39;34.53;;;15.80;;
13173;SDS011;6652;48.802;9.190;2023-08-17T04:38:06;30.98;;;16.27;;
13173;SDS011;6652;48.802;9.190;2023-08-17T04:40:32;31.17;;;16.90;;
13173;SDS011;6652;48.802;9.190;2023-08-17T04:42:59;34.03;;;15.52;;
13173;SDS011;6652;48.802;9.190;2023-08-17T04:45:26;39.80;;;17.10;;
13173;SDS011;6652;48.802;9.190;2023-08-17T04:47:54;28.92;;;17.02;;
13173;SDS011;6652;48.802;9.190;2023-08-17T04:50:21;30.90;;;15.52;;
13173;SDS011;6652;48.802;9.190;2023-08-17T04:52:48;25.80;;;14.95;;
13173;SDS011;6652;48.802;9.190;2023-08-17T04:55:15;21.98;;;15.10;;
13173;SDS011;6652;48.802;9.190;2023-08-17T04:57:41;25.67;;;16.15;;
13173;SDS011;6652;48.802;9.190;2023-08-17T05:00:10;27.10;;;16.38;;
13173;SDS011;6652;48.802;9.190;2023-08-17T05:02:37;24.48;;;16.27;;
13173;SDS011;6652;48.802;9.190;2023-08-17T05:05:06;26.23;;;15.00;;
13173;SDS011;6652;48.802;9.190;2023-08-17T05:07:35;20.65;;;14.30;;
13173;SDS011;6652;48.802;9.190;2023-08-17T05:10:02;27.33;;;15.68;;
13173;SDS011;6652;48.802;9.190;2023-08-17T05:12:30;26.55;;;14.43;;
13173;SDS011;6652;48.802;9.190;2023-08-17T05:14:56;24.50;;;14.07;;
13173;SDS011;6652;48.802;9.190;2023-08-17T05:17:23;28.20;;;15.13;;
13173;SDS011;6652;48.802;9.190;2023-08-17T05:19:50;24.30;;;14.20;;
13173;SDS011;6652;48.802;9.190;2023-08-17T05:22:18;20.75;;;14.50;;
13173;SDS011;6652;48.802;9.190;2023-08-17T05:24:45;22.17;;;13.85;;
13173;SDS011;6652;48.802;9.190;2023-08-17T05:27:12;22.77;;;15.25;;
13173;SDS011;6652;48.802;9.190;2023-08-17T05:29:39;25.67;;;13.85;;
13173;SDS011;6652;48.802;9.190;2023-08-17T05:32:06;26.45;;;14.15;;
13173;SDS011;6652;48.802;9.190;2023-08-17T05:34:32;23.65;;;14.00;;
13173;SDS011;6652;48.802;9.190;2023-08-17T05:36:59;24.27;;;14.25;;
13173;SDS011;6652;48.802;9.190;2023-08-17T05:39:27;24.58;;;14.43;;
13173;SDS011;6652;48.802;9.190;2023-08-17T05:41:54;25.02;;;14.52;;
13173;SDS011;6652;48.802;9.190;2023-08-17T05:44:21;27.90;;;15.77;;
13173;SDS011;6652;48.802;9.190;2023-08-17T05:46:48;25.92;;;15.30;;
13173;SDS011;6652;48.802;9.190;2023-08-17T05:49:15;22.58;;;14.85;;
13173;SDS011;6652;48.802;9.190;2023-08-17T05:51:41;22.17;;;14.27;;
13173;SDS011;6652;48.802;9.190;2023-08-17T05:54:08;23.80;;;14.65;;
13173;SDS011;6652;48.802;9.190;2023-08-17T05:56:36;21.92;;;13.90;;
13173;SDS011;6652;48.802;9.190;2023-08-17T05:59:03;24.38;;;14.93;;
13173;SDS011;6652;48.802;9.190;2023-08-17T06:01:30;22.05;;;13.57;;
13173;SDS011;6652;48.802;9.190;2023-08-17T06:03:57;29.10;;;14.32;;
13173;SDS011;6652;48.802;9.190;2023-08-17T06:06:24;23.55;;;14.68;;
13173;SDS011;6652;48.802;9.190;2023-08-17T06:08:51;24.90;;;15.65;;
13173;SDS011;6652;48.802;9.190;2023-08-17T06:11:18;27.60;;;15.68;;
13173;SDS011;6652;48.802;9.190;2023-08-17T06:13:46;33.25;;;17.58;;
13173;SDS011;6652;48.802;9.190;2023-08-17T06:16:13;23.95;;;15.85;;
13173;SDS011;6652;48.802;9.190;2023-08-17T06:18:39;22.45;;;16.10;;
13173;SDS011;6652;48.802;9.190;2023-08-17T06:21:06;23.23;;;16.13;;
13173;SDS011;6652;48.802;9.190;2023-08-17T06:23:33;25.33;;;17.48;;
13173;SDS011;6652;48.802;9.190;2023-08-17T06:26:03;25.38;;;15.57;;
13173;SDS011;6652;48.802;9.190;2023-08-17T06:28:30;29.20;;;14.15;;
13173;SDS011;6652;48.802;9.190;2023-08-17T06:30:58;23.13;;;12.95;;
13173;SDS011;6652;48.802;9.190;2023-08-17T06:33:25;21.70;;;12.15;;
13173;SDS011;6652;48.802;9.190;2023-08-17T06:35:51;21.33;;;12.43;;
13173;SDS011;6652;48.802;9.190;2023-08-17T06:38:18;19.73;;;12.60;;
13173;SDS011;6652;48.802;9.190;2023-08-17T06:40:45;24.50;;;13.23;;
13173;SDS011;6652;48.802;9.190;2023-08-17T06:43:13;18.23;;;11.73;;
13173;SDS011;6652;48.802;9.190;2023-08-17T06:45:39;15.45;;;11.73;;
13173;SDS011;6652;48.802;9.190;2023-08-17T06:48:07;24.00;;;12.02;;
13173;SDS011;6652;48.802;9.190;2023-08-17T06:50:34;20.45;;;11.80;;
13173;SDS011;6652;48.802;9.190;2023-08-17T06:53:01;16.83;;;12.93;;
13173;SDS011;6652;48.802;9.190;2023-08-17T06:55:28;16.67;;;12.35;;
13173;SDS011;6652;48.802;9.190;2023-08-17T06:57:55;21.88;;;14.02;;
13173;SDS011;6652;48.802;9.190;2023-08-17T07:00:21;24.17;;;13.93;;
13173;SDS011;6652;48.802;9.190;2023-08-17T07:02:48;19.15;;;15.00;;
13173;SDS011;6652;48.802;9.190;2023-08-17T07:05:17;17.52;;;12.82;;
13173;SDS011;6652;48.802;9.190;2023-08-17T07:07:44;22.10;;;12.27;;
13173;SDS011;6652;48.802;9.190;2023-08-17T07:10:11;22.35;;;14.48;;
13173;SDS011;6652;48.802;9.190;2023-08-17T07:12:38;20.80;;;12.20;;
13173;SDS011;6652;48.802;9.190;2023-08-17T07:15:05;25.40;;;12.15;;
13173;SDS011;6652;48.802;9.190;2023-08-17T07:17:32;21.75;;;10.75;;
13173;SDS011;6652;48.802;9.190;2023-08-17T07:20:01;14.75;;;10.40;;
13173;SDS011;6652;48.802;9.190;2023-08-17T07:22:30;19.33;;;11.63;;
13173;SDS011;6652;48.802;9.190;2023-08-17T07:24:56;19.58;;;11.25;;
13173;SDS011;6652;48.802;9.190;2023-08-17T07:27:23;14.10;;;10.27;;
13173;SDS011;6652;48.802;9.190;2023-08-17T07:29:50;17.30;;;9.20;;
13173;SDS011;6652;48.802;9.190;2023-08-17T07:32:18;15.98;;;9.60;;
13173;SDS011;6652;48.802;9.190;2023-08-17T07:34:46;19.05;;;10.63;;
13173;SDS011;6652;48.802;9.190;2023-08-17T07:37:12;15.43;;;10.13;;
13173;SDS011;6652;48.802;9.190;2023-08-17T07:39:41;17.23;;;11.02;;
13173;SDS011;6652;48.802;9.190;2023-08-17T07:42:07;18.48;;;9.40;;
13173;SDS011;6652;48.802;9.190;2023-08-17T07:44:34;20.05;;;10.05;;
13173;SDS011;6652;48.802;9.190;2023-08-17T07:47:01;14.13;;;8.20;;
13173;SDS011;6652;48.802;9.190;2023-08-17T07:49:28;16.50;;;9.45;;
13173;SDS011;6652;48.802;9.190;2023-08-17T07:51:54;14.77;;;9.60;;
13173;SDS011;6652;48.802;9.190;2023-08-17T07:54:21;18.33;;;10.25;;
13173;SDS011;6652;48.802;9.190;2023-08-17T07:56:49;15.05;;;10.35;;
13173;SDS011;6652;48.802;9.190;2023-08-17T07:59:16;15.02;;;9.10;;
13173;SDS011;6652;48.802;9.190;2023-08-17T08:01:43;14.50;;;9.13;;
13173;SDS011;6652;48.802;9.190;2023-08-17T08:04:10;14.57;;;9.05;;
13173;SDS011;6652;48.802;9.190;2023-08-17T08:06:36;15.45;;;8.98;;
13173;SDS011;6652;48.802;9.190;2023-08-17T08:09:03;15.73;;;8.90;;
13173;SDS011;6652;48.802;9.190;2023-08-17T08:11:31;15.20;;;9.43;;
13173;SDS011;6652;48.802;9.190;2023-08-17T08:13:59;15.38;;;9.52;;
13173;SDS011;6652;48.802;9.190;2023-08-17T08:16:26;13.88;;;9.30;;
13173;SDS011;6652;48.802;9.190;2023-08-17T08:18:55;15.18;;;9.98;;
13173;SDS011;6652;48.802;9.190;2023-08-17T08:21:22;17.23;;;8.90;;
13173;SDS011;6652;48.802;9.190;2023-08-17T08:23:48;12.45;;;9.60;;
13173;SDS011;6652;48.802;9.190;2023-08-17T08:26:15;16.60;;;9.60;;
13173;SDS011;6652;48.802;9.190;2023-08-17T08:28:42;13.43;;;8.40;;
13173;SDS011;6652;48.802;9.190;2023-08-17T08:31:10;15.95;;;9.23;;
13173;SDS011;6652;48.802;9.190;2023-08-17T08:33:37;14.45;;;9.68;;
13173;SDS011;6652;48.802;9.190;2023-08-17T08:36:04;17.45;;;8.73;;
13173;SDS011;6652;48.802;9.190;2023-08-17T08:38:31;11.93;;;8.50;;
13173;SDS011;6652;48.802;9.190;2023-08-17T08:40:58;14.98;;;7.95;;
13173;SDS011;6652;48.802;9.190;2023-08-17T08:43:25;15.82;;;8.90;;
13173;SDS011;6652;48.802;9.190;2023-08-17T08:45:51;11.38;;;8.70;;
13173;SDS011;6652;48.802;9.190;2023-08-17T08:48:19;12.27;;;8.75;;
13173;SDS011;6652;48.802;9.190;2023-08-17T08:50:48;13.02;;;8.10;;
13173;SDS011;6652;48.802;9.190;2023-08-17T08:53:17;12.95;;;8.38;;
13173;SDS011;6652;48.802;9.190;2023-08-17T08:55:53;19.00;;;7.78;;
13173;SDS011;6652;48.802;9.190;2023-08-17T08:58:22;15.98;;;9.00;;
13173;SDS011;6652;48.802;9.190;2023-08-17T09:00:50;15.75;;;9.57;;
13173;SDS011;6652;48.802;9.190;2023-08-17T09:03:20;15.40;;;9.48;;
13173;SDS011;6652;48.802;9.190;2023-08-17T09:05:47;15.85;;;7.75;;
13173;SDS011;6652;48.802;9.190;2023-08-17T09:08:15;12.25;;;7.55;;
13173;SDS011;6652;48.802;9.190;2023-08-17T09:10:46;12.23;;;8.13;;
13173;SDS011;6652;48.802;9.190;2023-08-17T09:13:13;14.80;;;7.22;;
13173;SDS011;6652;48.802;9.190;2023-08-17T09:15:40;13.13;;;9.15;;
13173;SDS011;6652;48.802;9.190;2023-08-17T09:18:07;14.95;;;9.65;;
13173;SDS011;6652;48.802;9.190;2023-08-17T09:20:37;11.02;;;8.63;;
13173;SDS011;6652;48.802;9.190;2023-08-17T09:23:06;11.25;;;8.13;;
13173;SDS011;6652;48.802;9.190;2023-08-17T09:25:37;17.25;;;7.93;;
13173;SDS011;6652;48.802;9.190;2023-08-17T09:28:08;12.65;;;8.98;;
13173;SDS011;6652;48.802;9.190;2023-08-17T09:30:51;18.27;;;10.13;;
13173;SDS011;6652;48.802;9.190;2023-08-17T09:33:19;14.60;;;8.02;;
13173;SDS011;6652;48.802;9.190;2023-08-17T09:35:48;17.17;;;8.02;;
13173;SDS011;6652;48.802;9.190;2023-08-17T09:38:16;15.45;;;7.82;;
13173;SDS011;6652;48.802;9.190;2023-08-17T09:40:42;11.68;;;7.43;;
13173;SDS011;6652;48.802;9.190;2023-08-17T09:43:10;13.13;;;7.78;;
13173;SDS011;6652;48.802;9.190;2023-08-17T09:45:38;13.15;;;9.20;;
13173;SDS011;6652;48.802;9.190;2023-08-17T09:48:05;20.80;;;8.25;;
13173;SDS011;6652;48.802;9.190;2023-08-17T09:50:33;11.45;;;7.78;;
13173;SDS011;6652;48.802;9.190;2023-08-17T09:53:01;18.13;;;7.35;;
13173;SDS011;6652;48.802;9.190;2023-08-17T09:55:29;14.07;;;7.97;;
13173;SDS011;6652;48.802;9.190;2023-08-17T09:57:58;12.55;;;7.50;;
13173;SDS011;6652;48.802;9.190;2023-08-17T10:00:25;13.45;;;8.15;;
13173;SDS011;6652;48.802;9.190;2023-08-17T10:02:54;10.98;;;7.20;;
13173;SDS011;6652;48.802;9.190;2023-08-17T10:05:23;14.93;;;9.00;;
13173;SDS011;6652;48.802;9.190;2023-08-17T10:07:56;16.35;;;8.38;;
13173;SDS011;6652;48.802;9.190;2023-08-17T10:10:27;11.38;;;8.82;;
13173;SDS011;6652;48.802;9.190;2023-08-17T10:12:58;15.95;;;8.00;;
13173;SDS011;6652;48.802;9.190;2023-08-17T10:15:31;14.98;;;8.18;;
13173;SDS011;6652;48.802;9.190;2023-08-17T10:18:00;15.45;;;7.68;;
13173;SDS011;6652;48.802;9.190;2023-08-17T10:20:35;14.65;;;8.38;;
13173;SDS011;6652;48.802;9.190;2023-08-17T10:23:08;12.57;;;8.80;;
13173;SDS011;6652;48.802;9.190;2023-08-17T10:25:41;13.77;;;9.25;;
13173;SDS011;6652;48.802;9.190;2023-08-17T10:28:09;15.38;;;9.65;;
13173;SDS011;6652;48.802;9.190;2023-08-17T10:30:37;12.85;;;8.15;;
13173;SDS011;6652;48.802;9.190;2023-08-17T10:33:04;11.52;;;8.60;;
13173;SDS011;6652;48.802;9.190;2023-08-17T10:35:31;10.73;;;7.32;;
13173;SDS011;6652;48.802;9.190;2023-08-17T10:37:59;11.88;;;7.75;;
13173;SDS011;6652;48.802;9.190;2023-08-17T10:40:26;11.15;;;9.05;;
13173;SDS011;6652;48.802;9.190;2023-08-17T10:42:55;16.65;;;8.93;;
13173;SDS011;6652;48.802;9.190;2023-08-17T10:45:25;14.40;;;9.30;;
13173;SDS011;6652;48.802;9.190;2023-08-17T10:47:59;22.48;;;8.93;;
13173;SDS011;6652;48.802;9.190;2023-08-17T10:50:58;17.13;;;8.65;;
13173;SDS011;6652;48.802;9.190;2023-08-17T10:53:27;18.85;;;9.70;;
13173;SDS011;6652;48.802;9.190;2023-08-17T10:55:59;15.77;;;8.45;;
13173;SDS011;6652;48.802;9.190;2023-08-17T10:58:27;17.80;;;8.80;;
13173;SDS011;6652;48.802;9.190;2023-08-17T11:00:57;15.23;;;9.35;;
13173;SDS011;6652;48.802;9.190;2023-08-17T11:03:24;12.68;;;8.43;;
13173;SDS011;6652;48.802;9.190;2023-08-17T11:05:51;13.43;;;8.07;;
13173;SDS011;6652;48.802;9.190;2023-08-17T11:08:21;15.25;;;8.13;;
13173;SDS011;6652;48.802;9.190;2023-08-17T11:10:56;15.43;;;7.50;;
13173;SDS011;6652;48.802;9.190;2023-08-17T11:13:24;7.78;;;6.68;;
13173;SDS011;6652;48.802;9.190;2023-08-17T11:15:57;10.27;;;7.38;;
13173;SDS011;6652;48.802;9.190;2023-08-17T11:18:25;12.90;;;7.68;;
13173;SDS011;6652;48.802;9.190;2023-08-17T11:20:52;12.18;;;7.72;;
13173;SDS011;6652;48.802;9.190;2023-08-17T11:23:20;8.70;;;6.55;;
13173;SDS011;6652;48.802;9.190;2023-08-17T11:25:48;14.48;;;9.10;;
13173;SDS011;6652;48.802;9.190;2023-08-17T11:28:16;12.35;;;8.75;;
13173;SDS011;6652;48.802;9.190;2023-08-17T11:30:44;13.45;;;7.88;;
13173;SDS011;6652;48.802;9.190;2023-08-17T11:33:11;13.45;;;7.35;;
13173;SDS011;6652;48.802;9.190;2023-08-17T11:35:38;13.05;;;8.48;;
13173;SDS011;6652;48.802;9.190;2023-08-17T11:38:05;8.75;;;7.00;;
13173;SDS011;6652;48.802;9.190;2023-08-17T11:40:33;15.57;;;7.25;;
13173;SDS011;6652;48.802;9.190;2023-08-17T11:43:00;11.23;;;6.82;;
13173;SDS011;6652;48.802;9.190;2023-08-17T11:45:27;14.55;;;7.75;;
13173;SDS011;6652;48.802;9.190;2023-08-17T11:47:56;7.70;;;6.60;;
13173;SDS011;6652;48.802;9.190;2023-08-17T11:50:24;7.70;;;6.40;;
13173;SDS011;6652;48.802;9.190;2023-08-17T11:52:51;11.60;;;6.30;;
13173;SDS011;6652;48.802;9.190;2023-08-17T11:55:18;14.45;;;6.97;;
13173;SDS011;6652;48.802;9.190;2023-08-17T11:57:45;14.40;;;6.82;;
13173;SDS011;6652;48.802;9.190;2023-08-17T12:00:16;12.23;;;7.03;;
13173;SDS011;6652;48.802;9.190;2023-08-17T12:02:46;12.15;;;6.63;;
13173;SDS011;6652;48.802;9.190;2023-08-17T12:05:15;11.57;;;6.20;;
13173;SDS011;6652;48.802;9.190;2023-08-17T12:07:45;13.40;;;6.38;;
13173;SDS011;6652;48.802;9.190;2023-08-17T12:10:12;13.82;;;7.20;;
13173;SDS011;6652;48.802;9.190;2023-08-17T12:12:39;12.73;;;6.85;;
13173;SDS011;6652;48.802;9.190;2023-08-17T12:15:06;8.73;;;7.20;;
13173;SDS011;6652;48.802;9.190;2023-08-17T12:17:35;11.45;;;6.78;;
13173;SDS011;6652;48.802;9.190;2023-08-17T12:20:07;17.90;;;7.25;;
13173;SDS011;6652;48.802;9.190;2023-08-17T12:22:35;11.23;;;6.93;;
13173;SDS011;6652;48.802;9.190;2023-08-17T12:25:06;12.07;;;8.25;;
13173;SDS011;6652;48.802;9.190;2023-08-17T12:27:35;14.73;;;7.88;;
13173;SDS011;6652;48.802;9.190;2023-08-17T12:30:02;14.68;;;7.05;;
13173;SDS011;6652;48.802;9.190;2023-08-17T12:32:29;13.32;;;8.27;;
13173;SDS011;6652;48.802;9.190;2023-08-17T12:34:56;16.50;;;8.43;;
13173;SDS011;6652;48.802;9.190;2023-08-17T12:37:23;14.32;;;8.52;;
13173;SDS011;6652;48.802;9.190;2023-08-17T12:39:51;13.52;;;8.05;;
13173;SDS011;6652;48.802;9.190;2023-08-17T12:42:18;13.05;;;8.30;;
13173;SDS011;6652;48.802;9.190;2023-08-17T12:44:44;14.88;;;8.13;;
13173;SDS011;6652;48.802;9.190;2023-08-17T12:47:11;21.42;;;7.45;;
13173;SDS011;6652;48.802;9.190;2023-08-17T12:49:38;7.80;;;6.65;;
13173;SDS011;6652;48.802;9.190;2023-08-17T12:52:05;8.60;;;6.40;;
13173;SDS011;6652;48.802;9.190;2023-08-17T12:54:31;11.55;;;6.60;;
13173;SDS011;6652;48.802;9.190;2023-08-17T12:57:00;8.48;;;6.30;;
13173;SDS011;6652;48.802;9.190;2023-08-17T12:59:27;13.20;;;5.53;;
13173;SDS011;6652;48.802;9.190;2023-08-17T13:01:54;7.97;;;5.88;;
13173;SDS011;6652;48.802;9.190;2023-08-17T13:04:21;6.72;;;5.28;;
13173;SDS011;6652;48.802;9.190;2023-08-17T13:06:48;18.20;;;5.75;;
13173;SDS011;6652;48.802;9.190;2023-08-17T13:09:16;18.92;;;5.70;;
13173;SDS011;6652;48.802;9.190;2023-08-17T13:11:43;17.38;;;6.20;;
13173;SDS011;6652;48.802;9.190;2023-08-17T13:14:12;10.48;;;5.07;;
13173;SDS011;6652;48.802;9.190;2023-08-17T13:16:38;11.63;;;5.63;;
13173;SDS011;6652;48.802;9.190;2023-08-17T13:19:05;10.40;;;5.15;;
13173;SDS011;6652;48.802;9.190;2023-08-17T13:21:32;14.65;;;5.43;;
13173;SDS011;6652;48.802;9.190;2023-08-17T13:23:59;14.60;;;5.35;;
13173;SDS011;6652;48.802;9.190;2023-08-17T13:26:28;13.00;;;5.25;;
13173;SDS011;6652;48.802;9.190;2023-08-17T13:28:55;27.20;;;6.20;;
13173;SDS011;6652;48.802;9.190;2023-08-17T13:31:23;9.70;;;5.43;;
13173;SDS011;6652;48.802;9.190;2023-08-17T13:33:50;7.07;;;5.20;;
13173;SDS011;6652;48.802;9.190;2023-08-17T13:36:17;8.32;;;5.57;;
13173;SDS011;6652;48.802;9.190;2023-08-17T13:38:44;10.52;;;5.60;;
13173;SDS011;6652;48.802;9.190;2023-08-17T13:41:11;12.10;;;6.53;;
13173;SDS011;6652;48.802;9.190;2023-08-17T13:43:38;12.52;;;6.55;;
13173;SDS011;6652;48.802;9.190;2023-08-17T13:46:05;15.35;;;6.25;;
13173;SDS011;6652;48.802;9.190;2023-08-17T13:48:33;15.88;;;6.97;;
13173;SDS011;6652;48.802;9.190;2023-08-17T13:51:00;11.00;;;5.70;;
13173;SDS011;6652;48.802;9.190;2023-08-17T13:53:27;10.52;;;6.53;;
13173;SDS011;6652;48.802;9.190;2023-08-17T13:55:54;11.43;;;6.32;;
13173;SDS011;6652;48.802;9.190;2023-08-17T13:58:20;10.75;;;7.07;;
13173;SDS011;6652;48.802;9.190;2023-08-17T14:00:47;12.32;;;6.93;;
13173;SDS011;6652;48.802;9.190;2023-08-17T14:03:14;17.85;;;7.57;;
13173;SDS011;6652;48.802;9.190;2023-08-17T14:05:42;10.60;;;6.75;;
13173;SDS011;6652;48.802;9.190;2023-08-17T14:08:09;13.43;;;6.95;;
13173;SDS011;6652;48.802;9.190;2023-08-17T14:10:36;12.13;;;7.50;;
13173;SDS011;6652;48.802;9.190;2023-08-17T14:13:03;13.90;;;6.97;;
13173;SDS011;6652;48.802;9.190;2023-08-17T14:15:30;9.90;;;6.82;;
13173;SDS011;6652;48.802;9.190;2023-08-17T14:17:57;11.27;;;6.90;;
13173;SDS011;6652;48.802;9.190;2023-08-17T14:20:24;10.77;;;7.45;;
13173;SDS011;6652;48.802;9.190;2023-08-17T14:22:52;13.95;;;7.40;;
13173;SDS011;6652;48.802;9.190;2023-08-17T14:25:19;10.27;;;6.32;;
13173;SDS011;6652;48.802;9.190;2023-08-17T14:27:45;11.32;;;8.90;;
13173;SDS011;6652;48.802;9.190;2023-08-17T14:30:12;12.88;;;7.80;;
13173;SDS011;6652;48.802;9.190;2023-08-17T14:32:39;10.82;;;7.40;;
13173;SDS011;6652;48.802;9.190;2023-08-17T14:35:06;9.55;;;6.85;;
13173;SDS011;6652;48.802;9.190;2023-08-17T14:37:33;13.68;;;9.55;;
13173;SDS011;6652;48.802;9.190;2023-08-17T14:40:01;7.88;;;6.57;;
13173;SDS011;6652;48.802;9.190;2023-08-17T14:42:28;15.80;;;7.50;;
13173;SDS011;6652;48.802;9.190;2023-08-17T14:44:55;12.30;;;7.07;;